Time;durP1;ratioP1;P1;durP2;ratioP2;P2;SDS_P1;SDS_P2;PMS_P1;PMS_P2;Temp;Humidity;BMP_temperature;BMP_pressure;BME280_temperature;BME280_humidity;BME280_pressure;Samples;Min_cycle;Max_cycle;Signal;HPM_P1;HPM_P2
2024/01/27 00:01:35;;;;;;;3.63;2.70;;;5.40;99.90;;;;;;5029581;28;20181;-81
2024/01/27 00:04:00;;;;;;;5.07;2.67;;;4.30;99.90;;;;;;5024592;28;20447;-81
2024/01/27 00:06:26;;;;;;;2.60;2.40;;;4.20;99.90;;;;;;5021886;28;20255;-82
2024/01/27 00:08:51;;;;;;;3.00;2.63;;;4.20;99.90;;;;;;5022363;28;20207;-81
2024/01/27 00:11:17;;;;;;;5.97;3.60;;;4.00;99.90;;;;;;5021104;28;20260;-81
2024/01/27 00:13:42;;;;;;;4.60;2.60;;;4.40;99.90;;;;;;5033138;28;20196;-81
2024/01/27 00:16:09;;;;;;;3.13;2.70;;;3.70;99.90;;;;;;5026424;28;20215;-81
2024/01/27 00:18:38;;;;;;;5.80;2.90;;;4.10;99.90;;;;;;5051018;28;20216;-81
2024/01/27 00:21:07;;;;;;;5.15;3.03;;;4.30;99.90;;;;;;5051442;28;20185;-81
2024/01/27 00:23:34;;;;;;;3.65;2.38;;;3.90;99.90;;;;;;5027696;28;20214;-81
2024/01/27 00:26:01;;;;;;;3.00;2.45;;;3.90;99.90;;;;;;5026139;28;20208;-81
2024/01/27 00:28:26;;;;;;;3.95;2.55;;;4.00;99.90;;;;;;5056523;28;20251;-83
2024/01/27 00:30:52;;;;;;;5.10;2.53;;;4.10;99.90;;;;;;5031761;28;20193;-82
2024/01/27 00:33:18;;;;;;;3.40;2.67;;;3.90;99.90;;;;;;5025618;28;20238;-81
2024/01/27 00:35:43;;;;;;;2.90;2.60;;;3.70;99.90;;;;;;5035617;28;20225;-81
2024/01/27 00:38:09;;;;;;;2.60;2.40;;;3.60;99.90;;;;;;5040536;28;20348;-81
2024/01/27 00:40:34;;;;;;;3.67;2.40;;;3.80;99.90;;;;;;5053521;28;20198;-81
2024/01/27 00:43:03;;;;;;;5.70;3.30;;;3.50;99.90;;;;;;5030427;28;20196;-81
2024/01/27 00:45:30;;;;;;;7.47;2.95;;;3.60;99.90;;;;;;5027238;28;20291;-81
2024/01/27 00:47:58;;;;;;;5.28;3.15;;;3.70;99.90;;;;;;5035049;28;20180;-82
2024/01/27 00:50:23;;;;;;;4.82;2.80;;;3.90;99.90;;;;;;5029756;28;20188;-81
2024/01/27 00:52:49;;;;;;;4.70;3.50;;;4.00;99.90;;;;;;5042023;28;20179;-81
2024/01/27 00:55:17;;;;;;;6.93;4.40;;;3.60;99.90;;;;;;5025326;28;20231;-82
2024/01/27 00:57:42;;;;;;;3.33;3.00;;;3.50;99.90;;;;;;5029257;28;20184;-81
2024/01/27 01:00:09;;;;;;;6.13;3.13;;;3.90;99.90;;;;;;5036609;28;20292;-82
2024/01/27 01:02:36;;;;;;;3.40;2.40;;;3.60;99.90;;;;;;5062761;28;20191;-81
2024/01/27 01:05:03;;;;;;;3.13;2.78;;;3.50;99.90;;;;;;5031956;28;20304;-81
2024/01/27 01:07:29;;;;;;;3.05;2.63;;;4.10;99.90;;;;;;5027406;28;20218;-81
2024/01/27 01:09:55;;;;;;;3.33;2.75;;;3.30;99.90;;;;;;5025827;28;20191;-82
2024/01/27 01:12:21;;;;;;;4.03;2.45;;;3.20;99.90;;;;;;5042646;28;20190;-81
2024/01/27 01:14:47;;;;;;;2.23;2.03;;;3.40;99.90;;;;;;5053488;28;20207;-81
2024/01/27 01:17:12;;;;;;;7.30;2.97;;;3.40;99.90;;;;;;5034691;28;20190;-81
2024/01/27 01:19:40;;;;;;;6.63;2.70;;;3.00;99.90;;;;;;5036036;28;20297;-81
2024/01/27 01:22:05;;;;;;;4.70;2.55;;;3.50;99.90;;;;;;5069545;28;20319;-81
2024/01/27 01:24:31;;;;;;;4.47;2.37;;;3.60;99.90;;;;;;5009362;28;20237;-81
2024/01/27 01:26:59;;;;;;;2.80;2.40;;;3.10;99.90;;;;;;5026263;28;20195;-81
2024/01/27 01:29:24;;;;;;;4.28;2.90;;;2.50;99.90;;;;;;5021191;28;20706;-81
2024/01/27 01:31:50;;;;;;;3.10;2.50;;;3.40;99.90;;;;;;5062857;28;20171;-81
2024/01/27 01:34:15;;;;;;;4.70;2.10;;;3.10;99.90;;;;;;5030168;28;20183;-81
2024/01/27 01:36:41;;;;;;;6.90;3.30;;;3.00;99.90;;;;;;5040811;28;20202;-81
2024/01/27 01:39:07;;;;;;;20.33;3.13;;;3.10;99.90;;;;;;5031630;28;20221;-81
2024/01/27 01:41:33;;;;;;;3.20;2.53;;;3.60;99.90;;;;;;5022275;28;20546;-81
2024/01/27 01:43:58;;;;;;;2.67;2.47;;;3.10;99.90;;;;;;5039386;28;20230;-81
2024/01/27 01:46:24;;;;;;;3.80;2.50;;;3.20;99.90;;;;;;5026868;28;20198;-81
2024/01/27 01:48:50;;;;;;;4.33;2.67;;;3.10;99.90;;;;;;5039564;28;20454;-81
2024/01/27 01:51:19;;;;;;;3.70;2.60;;;3.30;99.90;;;;;;5037963;28;20471;-82
2024/01/27 01:53:48;;;;;;;2.80;2.60;;;3.10;99.90;;;;;;5047948;28;20171;-81
2024/01/27 01:56:16;;;;;;;5.07;2.40;;;2.90;99.90;;;;;;5042787;28;20283;-81
2024/01/27 01:58:42;;;;;;;3.38;2.50;;;2.90;99.90;;;;;;5036536;28;20247;-82
2024/01/27 02:01:08;;;;;;;4.53;2.50;;;3.30;99.90;;;;;;5037774;28;20173;-82
2024/01/27 02:03:34;;;;;;;4.47;2.83;;;3.40;99.90;;;;;;5076106;28;20175;-82
2024/01/27 02:05:59;;;;;;;2.50;2.10;;;3.10;99.90;;;;;;5046276;28;20210;-81
2024/01/27 02:08:25;;;;;;;3.20;2.50;;;3.10;99.90;;;;;;5043825;28;20194;-83
2024/01/27 02:10:50;;;;;;;4.23;3.00;;;2.90;99.90;;;;;;5045341;28;20178;-82
2024/01/27 02:13:21;;;;;;;5.50;3.27;;;2.90;99.90;;;;;;5039245;28;20176;-82
2024/01/27 02:15:49;;;;;;;3.05;1.98;;;2.70;99.90;;;;;;5053884;28;20199;-82
2024/01/27 02:18:15;;;;;;;3.97;2.25;;;2.70;99.90;;;;;;5040577;28;20205;-82
2024/01/27 02:20:41;;;;;;;4.20;2.28;;;2.90;99.90;;;;;;5018159;28;20192;-82
2024/01/27 02:23:07;;;;;;;2.67;2.33;;;3.20;99.90;;;;;;5024403;28;20271;-82
2024/01/27 02:25:33;;;;;;;3.60;2.45;;;2.70;99.90;;;;;;5064326;28;20184;-82
2024/01/27 02:27:59;;;;;;;3.50;2.50;;;2.70;99.90;;;;;;5026013;28;20183;-82
2024/01/27 02:30:24;;;;;;;2.93;2.63;;;3.00;99.90;;;;;;5039483;28;20480;-81
2024/01/27 02:32:51;;;;;;;3.40;2.60;;;2.40;99.90;;;;;;5023644;28;20459;-82
2024/01/27 02:35:16;;;;;;;2.63;2.30;;;2.60;99.90;;;;;;5040079;28;20283;-81
2024/01/27 02:37:42;;;;;;;2.87;2.40;;;2.70;99.90;;;;;;5038310;28;20737;-82
2024/01/27 02:40:12;;;;;;;2.80;2.60;;;2.90;99.90;;;;;;5009004;28;20682;-82
2024/01/27 02:42:38;;;;;;;2.20;2.00;;;2.80;99.90;;;;;;5018357;28;20450;-82
2024/01/27 02:45:04;;;;;;;4.37;2.20;;;3.10;99.90;;;;;;5047728;28;20196;-82
2024/01/27 02:47:30;;;;;;;4.25;2.40;;;2.60;99.90;;;;;;5023814;28;20447;-83
2024/01/27 02:49:55;;;;;;;3.07;2.50;;;2.80;99.90;;;;;;5027094;28;20288;-83
2024/01/27 02:52:21;;;;;;;4.40;2.27;;;2.40;99.90;;;;;;5024528;28;20196;-83
2024/01/27 02:54:46;;;;;;;6.60;2.90;;;2.50;99.90;;;;;;5024984;28;20365;-83
2024/01/27 02:57:12;;;;;;;2.50;2.20;;;2.80;99.90;;;;;;5029721;28;20191;-83
2024/01/27 02:59:38;;;;;;;4.32;2.20;;;2.30;99.90;;;;;;5042612;28;20217;-82
2024/01/27 03:02:05;;;;;;;4.05;2.22;;;2.40;99.90;;;;;;5029406;28;20187;-83
2024/01/27 03:04:31;;;;;;;2.60;2.40;;;2.50;99.90;;;;;;5026699;28;20233;-83
2024/01/27 03:06:57;;;;;;;3.70;2.40;;;2.50;99.90;;;;;;5027404;28;20659;-83
2024/01/27 03:09:22;;;;;;;6.17;2.17;;;2.80;99.90;;;;;;5023477;28;20815;-83
2024/01/27 03:11:48;;;;;;;3.17;2.43;;;2.40;99.90;;;;;;5020347;28;20196;-83
2024/01/27 03:14:14;;;;;;;5.60;2.50;;;2.50;99.90;;;;;;5021011;28;20190;-83
2024/01/27 03:16:39;;;;;;;4.03;2.65;;;2.90;99.90;;;;;;5026705;28;20186;-83
2024/01/27 03:19:05;;;;;;;3.00;2.70;;;2.20;99.90;;;;;;5021203;28;20243;-84
2024/01/27 03:21:31;;;;;;;4.25;2.40;;;2.40;99.90;;;;;;5028249;28;20188;-82
2024/01/27 03:23:57;;;;;;;2.30;2.13;;;1.80;99.90;;;;;;5024548;28;20269;-83
2024/01/27 03:26:22;;;;;;;2.87;2.47;;;2.40;99.90;;;;;;5027053;28;20207;-83
2024/01/27 03:28:48;;;;;;;3.90;2.30;;;2.90;99.90;;;;;;5026056;28;20183;-82
2024/01/27 03:31:14;;;;;;;3.63;2.70;;;2.40;99.90;;;;;;5034428;28;20197;-83
2024/01/27 03:33:39;;;;;;;3.00;2.27;;;2.30;99.90;;;;;;5020344;28;20192;-83
2024/01/27 03:36:12;;;;;;;2.70;2.20;;;2.50;99.90;;;;;;5024807;28;20257;-83
2024/01/27 03:38:40;;;;;;;3.65;2.50;;;2.20;99.90;;;;;;5056177;28;20833;-83
2024/01/27 03:41:06;;;;;;;3.80;2.40;;;2.60;99.90;;;;;;5022389;28;20245;-83
2024/01/27 03:43:32;;;;;;;3.50;2.40;;;2.20;99.90;;;;;;5018490;28;20186;-83
2024/01/27 03:45:58;;;;;;;5.15;3.42;;;2.40;99.90;;;;;;5003831;28;20203;-83
2024/01/27 03:48:24;;;;;;;6.43;2.33;;;2.30;99.90;;;;;;5027175;28;20713;-83
2024/01/27 03:50:50;;;;;;;5.15;3.08;;;2.40;99.90;;;;;;5037720;28;20192;-83
2024/01/27 03:53:16;;;;;;;5.43;3.00;;;2.30;99.90;;;;;;5022116;28;20222;-83
2024/01/27 03:55:41;;;;;;;6.73;2.47;;;2.20;99.90;;;;;;5033917;28;20218;-83
2024/01/27 03:58:07;;;;;;;3.70;2.40;;;2.40;99.90;;;;;;5020377;28;20187;-83
2024/01/27 04:00:33;;;;;;;3.40;2.60;;;2.40;99.90;;;;;;5047670;28;20190;-83
2024/01/27 04:02:59;;;;;;;4.20;2.88;;;2.40;99.90;;;;;;5022387;28;20183;-83
2024/01/27 04:05:25;;;;;;;5.35;3.60;;;2.30;99.90;;;;;;5027643;28;20202;-83
2024/01/27 04:07:51;;;;;;;6.07;2.97;;;2.40;99.90;;;;;;5024705;28;20182;-83
2024/01/27 04:10:17;;;;;;;3.30;2.63;;;2.40;99.90;;;;;;5023883;28;20442;-83
2024/01/27 04:12:43;;;;;;;5.15;2.33;;;2.40;99.90;;;;;;5022427;28;20179;-83
2024/01/27 04:15:10;;;;;;;5.00;2.80;;;2.30;99.90;;;;;;5020824;28;20640;-83
2024/01/27 04:17:35;;;;;;;5.35;3.00;;;2.60;99.90;;;;;;5042247;28;20190;-82
2024/01/27 04:20:01;;;;;;;3.83;2.53;;;2.20;99.90;;;;;;5027856;28;20210;-82
2024/01/27 04:22:28;;;;;;;7.03;2.80;;;1.60;99.90;;;;;;5024590;28;20215;-82
2024/01/27 04:24:54;;;;;;;10.02;2.95;;;2.70;99.90;;;;;;5025796;28;20464;-82
2024/01/27 04:27:19;;;;;;;3.00;2.80;;;2.20;99.90;;;;;;5046858;28;20180;-82
2024/01/27 04:29:45;;;;;;;4.13;2.80;;;2.70;99.90;;;;;;5030452;28;20173;-83
2024/01/27 04:32:12;;;;;;;3.77;2.60;;;2.60;99.90;;;;;;5039239;28;20200;-83
2024/01/27 04:34:38;;;;;;;5.97;2.75;;;2.30;99.90;;;;;;5025327;28;20469;-83
2024/01/27 04:37:04;;;;;;;4.73;2.60;;;2.30;99.90;;;;;;5048605;28;20197;-83
2024/01/27 04:39:29;;;;;;;4.43;2.90;;;2.40;99.90;;;;;;5026907;28;20587;-83
2024/01/27 04:41:55;;;;;;;4.73;2.60;;;2.60;99.90;;;;;;5024316;28;20995;-83
2024/01/27 04:44:21;;;;;;;5.63;2.70;;;2.10;99.90;;;;;;5019896;28;20178;-81
2024/01/27 04:46:46;;;;;;;2.70;2.50;;;2.40;99.90;;;;;;5024335;28;20182;-83
2024/01/27 04:49:13;;;;;;;3.07;2.60;;;2.10;99.90;;;;;;5027650;28;20277;-83
2024/01/27 04:51:39;;;;;;;4.47;3.05;;;2.20;99.90;;;;;;5024958;28;20611;-83
2024/01/27 04:54:05;;;;;;;6.70;3.37;;;2.00;99.90;;;;;;5025438;28;20190;-83
2024/01/27 04:56:30;;;;;;;3.60;2.70;;;2.30;99.90;;;;;;5015377;28;20190;-83
2024/01/27 04:58:56;;;;;;;3.80;2.87;;;2.20;99.90;;;;;;5024849;28;20203;-83
2024/01/27 05:01:21;;;;;;;7.83;3.90;;;2.20;99.90;;;;;;5019572;28;20180;-83
2024/01/27 05:03:47;;;;;;;5.20;2.73;;;2.00;99.90;;;;;;5030882;28;20230;-83
2024/01/27 05:06:13;;;;;;;5.90;2.90;;;2.10;99.90;;;;;;5032202;28;20630;-83
2024/01/27 05:08:38;;;;;;;3.67;2.73;;;1.70;99.90;;;;;;5033439;28;20237;-83
2024/01/27 05:11:04;;;;;;;4.93;3.57;;;1.80;99.90;;;;;;5045594;28;20468;-82
2024/01/27 05:13:29;;;;;;;5.50;4.37;;;2.20;99.90;;;;;;5020208;28;20191;-83
2024/01/27 05:15:56;;;;;;;5.50;2.63;;;2.10;99.90;;;;;;5021360;28;20218;-83
2024/01/27 05:18:22;;;;;;;5.93;2.92;;;2.10;99.90;;;;;;5023176;28;20222;-83
2024/01/27 05:20:47;;;;;;;8.70;3.30;;;1.90;99.90;;;;;;5020538;28;20182;-83
2024/01/27 05:23:13;;;;;;;4.77;3.20;;;1.70;99.90;;;;;;5023815;28;20194;-83
2024/01/27 05:25:39;;;;;;;4.93;2.63;;;2.00;99.90;;;;;;5009133;28;20210;-83
2024/01/27 05:28:05;;;;;;;3.50;2.45;;;2.10;99.90;;;;;;5027391;28;20179;-83
2024/01/27 05:30:30;;;;;;;6.37;3.03;;;1.90;99.90;;;;;;5028936;28;20233;-82
2024/01/27 05:32:56;;;;;;;9.03;3.00;;;1.90;99.90;;;;;;5038642;28;20467;-83
2024/01/27 05:35:21;;;;;;;4.17;2.57;;;1.60;99.90;;;;;;5039990;28;20219;-82
2024/01/27 05:37:47;;;;;;;3.27;2.37;;;1.90;99.90;;;;;;5025921;28;20682;-81
2024/01/27 05:40:13;;;;;;;4.80;2.50;;;1.80;99.90;;;;;;5025982;28;20225;-81
2024/01/27 05:42:40;;;;;;;5.37;3.30;;;1.80;99.90;;;;;;5038484;28;20709;-82
2024/01/27 05:45:06;;;;;;;6.60;3.05;;;1.90;99.90;;;;;;5018517;28;20202;-83
2024/01/27 05:47:32;;;;;;;3.20;2.90;;;1.80;99.90;;;;;;5020374;28;20213;-81
2024/01/27 05:49:57;;;;;;;4.43;3.07;;;1.60;99.90;;;;;;5022376;28;20186;-82
2024/01/27 05:52:25;;;;;;;5.50;3.20;;;2.00;99.90;;;;;;5041143;28;20182;-81
2024/01/27 05:54:50;;;;;;;7.72;3.38;;;1.90;99.90;;;;;;5039636;28;20199;-82
2024/01/27 05:57:16;;;;;;;3.53;2.43;;;1.70;99.90;;;;;;5026475;28;20270;-83
2024/01/27 05:59:41;;;;;;;5.33;2.93;;;1.70;99.90;;;;;;5018178;28;20585;-83
2024/01/27 06:02:07;;;;;;;3.70;2.90;;;1.70;99.90;;;;;;5050151;28;20658;-83
2024/01/27 06:04:33;;;;;;;6.70;2.93;;;2.30;99.90;;;;;;5019451;28;20198;-81
2024/01/27 06:06:58;;;;;;;6.03;3.10;;;1.60;99.90;;;;;;5027823;28;20192;-83
2024/01/27 06:09:24;;;;;;;6.53;3.30;;;1.60;99.90;;;;;;5038484;28;20444;-83
2024/01/27 06:11:49;;;;;;;3.03;2.73;;;1.50;99.90;;;;;;5019634;28;20257;-83
2024/01/27 06:14:15;;;;;;;8.97;3.50;;;1.60;99.90;;;;;;5049709;28;20230;-83
2024/01/27 06:16:40;;;;;;;4.50;3.57;;;1.60;99.90;;;;;;5021839;28;20190;-83
2024/01/27 06:19:06;;;;;;;6.90;3.50;;;1.60;99.90;;;;;;5019333;28;20214;-81
2024/01/27 06:21:31;;;;;;;5.90;3.60;;;1.80;99.90;;;;;;5019104;28;20288;-83
2024/01/27 06:23:58;;;;;;;6.53;3.63;;;1.90;99.90;;;;;;5034665;28;20183;-82
2024/01/27 06:26:24;;;;;;;3.35;3.05;;;1.70;99.90;;;;;;5025721;28;20226;-81
2024/01/27 06:28:49;;;;;;;6.53;3.37;;;1.50;99.90;;;;;;5020500;28;20674;-81
2024/01/27 06:31:15;;;;;;;5.50;3.63;;;1.90;99.90;;;;;;5023677;28;20193;-83
2024/01/27 06:33:41;;;;;;;4.47;3.58;;;1.50;99.90;;;;;;5049657;28;20189;-80
2024/01/27 06:36:09;;;;;;;6.53;3.90;;;1.50;99.90;;;;;;5021207;28;20245;-81
2024/01/27 06:38:37;;;;;;;7.18;3.88;;;1.70;99.90;;;;;;5039662;28;20198;-83
2024/01/27 06:41:03;;;;;;;7.40;3.90;;;1.60;99.90;;;;;;5022897;28;20238;-83
2024/01/27 06:43:29;;;;;;;5.88;3.30;;;1.70;99.90;;;;;;5017300;28;20182;-83
2024/01/27 06:45:56;;;;;;;7.30;3.63;;;2.10;99.90;;;;;;5044439;28;20289;-83
2024/01/27 06:48:24;;;;;;;7.38;3.92;;;1.70;99.90;;;;;;5023280;28;20591;-83
2024/01/27 06:50:50;;;;;;;4.65;3.53;;;1.40;99.90;;;;;;5024860;28;20186;-83
2024/01/27 06:53:16;;;;;;;3.80;3.50;;;1.80;99.90;;;;;;5012878;28;20189;-83
2024/01/27 06:55:41;;;;;;;6.67;3.70;;;1.50;99.90;;;;;;5020653;28;20210;-83
2024/01/27 06:58:07;;;;;;;5.90;4.13;;;1.70;99.90;;;;;;5055885;28;20671;-83
2024/01/27 07:00:32;;;;;;;5.97;3.60;;;1.50;99.90;;;;;;5029059;28;20247;-81
2024/01/27 07:02:58;;;;;;;5.27;3.70;;;1.40;99.90;;;;;;5027921;28;20175;-81
2024/01/27 07:05:23;;;;;;;5.33;3.27;;;1.00;99.90;;;;;;5027679;28;20285;-81
2024/01/27 07:07:49;;;;;;;7.20;4.00;;;1.30;99.90;;;;;;5020497;28;20434;-81
2024/01/27 07:10:15;;;;;;;4.97;3.43;;;1.90;99.90;;;;;;5026618;28;20225;-81
2024/01/27 07:12:40;;;;;;;3.80;3.10;;;1.60;99.90;;;;;;5022397;28;20969;-81
2024/01/27 07:15:06;;;;;;;5.83;3.53;;;1.70;99.90;;;;;;5026493;28;20260;-82
2024/01/27 07:17:32;;;;;;;3.87;3.40;;;1.50;99.90;;;;;;5028273;28;20202;-82
2024/01/27 07:19:57;;;;;;;5.30;3.57;;;1.80;99.90;;;;;;5022246;28;20554;-82
2024/01/27 07:22:23;;;;;;;6.00;3.70;;;1.60;99.90;;;;;;5023394;28;20195;-82
2024/01/27 07:24:51;;;;;;;5.45;3.97;;;1.50;99.90;;;;;;5032936;28;20206;-82
2024/01/27 07:27:18;;;;;;;5.38;3.50;;;1.60;99.90;;;;;;5020678;28;20193;-81
2024/01/27 07:29:43;;;;;;;4.85;3.50;;;1.70;99.90;;;;;;5019704;28;20269;-82
2024/01/27 07:32:13;;;;;;;6.90;4.37;;;1.80;99.90;;;;;;5038189;28;21345;-82
2024/01/27 07:34:40;;;;;;;7.05;3.90;;;1.60;99.90;;;;;;5031464;28;20192;-82
2024/01/27 07:37:06;;;;;;;7.05;3.60;;;2.20;99.90;;;;;;5022319;28;20291;-81
2024/01/27 07:39:31;;;;;;;7.10;3.47;;;1.50;99.90;;;;;;5022386;28;20202;-82
2024/01/27 07:41:58;;;;;;;6.00;4.13;;;1.50;99.90;;;;;;5014612;28;20701;-86
2024/01/27 07:44:24;;;;;;;4.32;3.85;;;1.50;99.90;;;;;;5038128;28;20214;-85
2024/01/27 07:46:49;;;;;;;3.90;3.50;;;1.60;99.90;;;;;;5015051;28;20190;-86
2024/01/27 07:49:15;;;;;;;5.70;3.67;;;1.80;99.90;;;;;;5001941;28;20214;-86
2024/01/27 07:51:41;;;;;;;5.57;4.00;;;2.00;99.90;;;;;;4999847;28;20198;-88
2024/01/27 07:54:06;;;;;;;5.87;4.57;;;1.50;99.90;;;;;;5023289;28;20202;-82
2024/01/27 07:56:32;;;;;;;6.53;4.20;;;1.70;99.90;;;;;;5018790;28;20195;-83
2024/01/27 07:58:58;;;;;;;6.47;3.65;;;1.30;99.90;;;;;;5022311;28;20296;-85
2024/01/27 08:01:23;;;;;;;7.30;4.30;;;2.00;99.90;;;;;;5016525;28;20187;-83
2024/01/27 08:03:49;;;;;;;8.20;4.37;;;1.80;99.90;;;;;;5019432;28;20240;-82
2024/01/27 08:06:21;;;;;;;5.33;3.93;;;1.80;99.90;;;;;;5037079;28;20214;-83
2024/01/27 08:08:47;;;;;;;4.85;4.00;;;1.30;99.90;;;;;;5024534;28;20178;-82
2024/01/27 08:11:14;;;;;;;7.50;5.10;;;1.50;99.90;;;;;;5027511;28;20203;-82
2024/01/27 08:13:40;;;;;;;7.68;5.05;;;1.50;99.90;;;;;;5032117;28;20175;-81
2024/01/27 08:16:09;;;;;;;5.28;4.75;;;1.80;99.90;;;;;;5025821;28;20210;-82
2024/01/27 08:18:35;;;;;;;9.48;5.30;;;2.30;99.90;;;;;;5021934;28;20666;-82
2024/01/27 08:21:00;;;;;;;8.40;5.05;;;1.40;99.90;;;;;;5023022;28;20273;-83
2024/01/27 08:23:26;;;;;;;10.17;4.57;;;1.70;99.90;;;;;;5015943;28;20269;-82
2024/01/27 08:25:52;;;;;;;10.60;4.90;;;2.00;99.90;;;;;;5020129;28;20277;-83
2024/01/27 08:28:19;;;;;;;6.45;5.25;;;2.10;99.90;;;;;;5018863;28;20183;-83
2024/01/27 08:30:45;;;;;;;7.45;5.47;;;1.80;99.90;;;;;;5027279;28;20212;-81
2024/01/27 08:33:10;;;;;;;8.33;4.80;;;2.10;99.90;;;;;;5042804;28;20204;-83
2024/01/27 08:35:35;;;;;;;8.17;4.43;;;2.10;99.90;;;;;;5031837;28;20218;-84
2024/01/27 08:38:03;;;;;;;6.53;4.65;;;2.20;99.90;;;;;;5017273;28;21007;-84
2024/01/27 08:40:29;;;;;;;9.70;6.27;;;2.30;99.90;;;;;;5021068;28;20455;-83
2024/01/27 08:42:54;;;;;;;7.50;5.40;;;2.10;99.90;;;;;;5037495;28;20452;-86
2024/01/27 08:45:20;;;;;;;8.90;6.33;;;2.40;99.90;;;;;;5053189;28;20202;-82
2024/01/27 08:47:45;;;;;;;5.73;5.13;;;2.30;99.90;;;;;;5018753;28;20187;-86
2024/01/27 08:50:11;;;;;;;8.93;5.97;;;2.60;99.90;;;;;;5019624;28;20190;-87
2024/01/27 08:52:36;;;;;;;7.20;5.93;;;2.90;99.90;;;;;;5049043;28;20179;-86
2024/01/27 08:55:02;;;;;;;9.87;5.57;;;2.50;99.90;;;;;;5029583;28;20206;-82
2024/01/27 08:57:28;;;;;;;11.17;6.50;;;3.00;99.90;;;;;;5024631;28;20183;-85
2024/01/27 08:59:53;;;;;;;10.53;7.23;;;2.10;99.90;;;;;;5025700;28;20469;-84
2024/01/27 09:02:19;;;;;;;9.57;6.70;;;3.00;99.90;;;;;;5027526;28;20189;-84
2024/01/27 09:04:45;;;;;;;8.87;6.30;;;3.00;99.90;;;;;;5024543;28;20202;-85
2024/01/27 09:07:11;;;;;;;13.83;6.30;;;2.80;99.90;;;;;;5020749;28;20433;-87
2024/01/27 09:09:38;;;;;;;7.90;6.22;;;3.10;99.90;;;;;;5035424;28;20187;-85
2024/01/27 09:12:04;;;;;;;8.20;6.45;;;3.60;99.90;;;;;;5024923;28;20202;-86
2024/01/27 09:14:29;;;;;;;9.87;6.23;;;3.30;99.90;;;;;;5013015;28;20204;-85
2024/01/27 09:16:55;;;;;;;11.30;5.90;;;3.60;99.90;;;;;;5023232;28;20184;-84
2024/01/27 09:19:20;;;;;;;9.30;7.20;;;3.60;99.90;;;;;;5019819;28;20236;-85
2024/01/27 09:21:46;;;;;;;9.97;6.37;;;4.60;99.90;;;;;;5038344;28;20178;-87
2024/01/27 09:24:12;;;;;;;7.68;6.30;;;6.00;99.90;;;;;;5033252;28;20187;-86
2024/01/27 09:26:38;;;;;;;8.50;4.80;;;7.40;99.90;;;;;;5057121;28;20185;-86
2024/01/27 09:29:03;;;;;;;11.37;4.80;;;8.90;99.90;;;;;;5019900;28;20200;-89
2024/01/27 09:31:29;;;;;;;11.23;5.30;;;10.00;99.90;;;;;;5026436;28;20192;-86
2024/01/27 09:33:55;;;;;;;5.03;4.30;;;11.00;97.80;;;;;;5027671;28;20192;-89
2024/01/27 09:36:20;;;;;;;4.82;4.32;;;11.20;96.00;;;;;;5034811;28;20214;-88
2024/01/27 09:38:46;;;;;;;8.80;5.47;;;11.30;95.30;;;;;;5017105;28;20201;-87
2024/01/27 09:41:15;;;;;;;8.13;5.30;;;12.50;93.30;;;;;;5047681;28;20405;-86
2024/01/27 09:43:45;;;;;;;7.75;6.13;;;12.10;92.00;;;;;;5020025;28;20448;-86
2024/01/27 09:46:12;;;;;;;8.05;4.85;;;11.20;93.50;;;;;;5027499;28;20203;-84
2024/01/27 09:48:38;;;;;;;6.95;4.97;;;10.90;94.50;;;;;;5024735;28;20249;-84
2024/01/27 09:51:05;;;;;;;7.07;4.83;;;10.60;94.10;;;;;;5029706;28;20227;-87
2024/01/27 09:53:30;;;;;;;8.00;5.30;;;10.30;94.40;;;;;;5033897;28;20603;-84
2024/01/27 09:55:58;;;;;;;11.80;5.97;;;11.50;95.00;;;;;;5018059;28;20225;-84
2024/01/27 09:58:32;;;;;;;7.47;5.28;;;11.80;92.80;;;;;;5022410;28;20194;-84
2024/01/27 10:00:59;;;;;;;8.50;4.40;;;13.30;91.20;;;;;;5035579;28;20209;-84
2024/01/27 10:03:26;;;;;;;6.65;4.22;;;12.70;90.30;;;;;;5030729;28;20212;-84
2024/01/27 10:05:56;;;;;;;9.00;6.10;;;12.80;90.90;;;;;;5024334;28;20198;-87
2024/01/27 10:08:23;;;;;;;7.78;4.55;;;12.10;90.90;;;;;;5034605;28;20197;-87
2024/01/27 10:10:56;;;;;;;8.52;6.80;;;13.60;89.70;;;;;;5020796;28;20239;-84
2024/01/27 10:13:26;;;;;;;6.65;5.15;;;14.40;85.20;;;;;;5036261;28;20192;-84
2024/01/27 10:16:06;;;;;;;8.27;4.40;;;15.20;82.20;;;;;;5021368;28;20206;-83
2024/01/27 10:18:33;;;;;;;5.20;4.05;;;15.60;78.60;;;;;;5040740;28;20211;-85
2024/01/27 10:21:11;;;;;;;6.50;5.00;;;16.50;80.10;;;;;;5023724;28;20191;-90
2024/01/27 10:23:39;;;;;;;4.55;3.95;;;13.80;81.80;;;;;;5021737;28;20186;-88
2024/01/27 10:26:05;;;;;;;4.25;3.85;;;12.40;83.40;;;;;;5017673;28;20844;-86
2024/01/27 10:28:30;;;;;;;3.80;3.30;;;12.50;86.40;;;;;;5024535;28;20185;-87
2024/01/27 10:31:08;;;;;;;9.30;4.27;;;12.80;87.20;;;;;;5018786;28;20193;-85
2024/01/27 10:33:33;;;;;;;6.05;4.80;;;11.50;88.30;;;;;;5050156;28;20187;-85
2024/01/27 10:35:59;;;;;;;5.20;3.53;;;12.00;90.80;;;;;;5039004;28;20201;-85
2024/01/27 10:38:39;;;;;;;5.75;3.70;;;11.90;88.90;;;;;;5051056;28;20236;-86
2024/01/27 10:41:12;;;;;;;3.60;3.17;;;12.30;88.20;;;;;;5029118;28;20212;-83
2024/01/27 10:43:38;;;;;;;7.75;4.30;;;13.40;84.80;;;;;;5024185;28;20577;-85
2024/01/27 10:46:08;;;;;;;4.20;3.40;;;14.50;80.70;;;;;;5023608;28;20194;-84
2024/01/27 10:48:36;;;;;;;7.68;3.65;;;15.60;77.10;;;;;;5023079;28;20186;-86
2024/01/27 10:51:08;;;;;;;7.25;3.50;;;15.90;74.10;;;;;;5019115;28;20645;-85
2024/01/27 10:53:37;;;;;;;7.47;3.78;;;16.30;71.00;;;;;;5023291;28;20547;-85
2024/01/27 10:56:07;;;;;;;4.88;3.05;;;16.40;70.50;;;;;;5019203;28;20297;-87
2024/01/27 10:58:40;;;;;;;6.22;3.70;;;16.40;69.00;;;;;;5021177;28;20578;-85
2024/01/27 11:01:11;;;;;;;7.60;2.85;;;16.60;69.90;;;;;;5018721;28;20193;-87
2024/01/27 11:03:41;;;;;;;5.18;3.70;;;17.20;67.90;;;;;;5023553;28;21103;-85
2024/01/27 11:06:09;;;;;;;5.10;3.80;;;17.00;65.90;;;;;;5017211;28;20198;-85
2024/01/27 11:08:34;;;;;;;6.40;3.78;;;16.40;68.50;;;;;;5015813;28;20193;-85
2024/01/27 11:11:01;;;;;;;3.80;3.50;;;16.80;69.20;;;;;;5013312;28;20194;-85
2024/01/27 11:13:32;;;;;;;4.80;4.30;;;17.40;68.40;;;;;;5017227;28;20440;-86
2024/01/27 11:15:58;;;;;;;10.73;4.30;;;16.30;69.50;;;;;;5017265;28;20285;-85
2024/01/27 11:18:24;;;;;;;7.80;3.77;;;14.90;70.20;;;;;;5019755;28;20218;-87
2024/01/27 11:20:58;;;;;;;6.47;3.60;;;14.10;72.80;;;;;;5032904;28;20547;-86
2024/01/27 11:23:35;;;;;;;4.50;3.75;;;13.60;75.20;;;;;;5021116;28;20741;-85
2024/01/27 11:26:05;;;;;;;5.25;3.42;;;13.90;75.20;;;;;;5019518;28;20681;-85
2024/01/27 11:28:31;;;;;;;4.45;3.40;;;14.70;73.80;;;;;;5013467;28;20187;-86
2024/01/27 11:30:56;;;;;;;4.90;3.73;;;14.30;73.70;;;;;;5021420;28;20601;-85
2024/01/27 11:33:25;;;;;;;3.93;3.23;;;16.50;76.20;;;;;;5019217;28;20193;-86
2024/01/27 11:36:04;;;;;;;7.97;3.30;;;13.80;73.90;;;;;;5021190;28;20280;-84
2024/01/27 11:38:33;;;;;;;6.28;4.30;;;13.30;76.40;;;;;;5036166;28;20214;-86
2024/01/27 11:41:02;;;;;;;5.72;4.18;;;13.30;78.90;;;;;;5040588;28;20187;-86
2024/01/27 11:43:27;;;;;;;5.53;4.18;;;13.80;78.70;;;;;;5020690;28;20249;-85
2024/01/27 11:46:00;;;;;;;7.57;4.40;;;14.20;76.50;;;;;;5014774;28;20227;-86
2024/01/27 11:48:26;;;;;;;4.97;3.90;;;13.10;77.20;;;;;;5023837;28;20185;-86
2024/01/27 11:51:07;;;;;;;6.47;4.07;;;12.80;80.40;;;;;;5015892;28;20192;-87
2024/01/27 11:53:33;;;;;;;6.60;4.10;;;12.60;81.80;;;;;;5018286;28;20446;-86
2024/01/27 11:56:00;;;;;;;10.27;4.70;;;13.00;80.70;;;;;;5017562;28;20294;-86
2024/01/27 11:58:25;;;;;;;5.65;3.97;;;12.90;80.50;;;;;;5023352;28;20243;-86
2024/01/27 12:00:52;;;;;;;5.97;4.07;;;12.60;81.50;;;;;;5050252;28;20187;-86
2024/01/27 12:03:18;;;;;;;6.85;3.95;;;13.00;81.90;;;;;;5055077;28;20178;-86
2024/01/27 12:05:44;;;;;;;5.68;3.42;;;12.20;81.30;;;;;;5044993;28;20228;-86
2024/01/27 12:08:09;;;;;;;5.00;4.20;;;11.60;81.80;;;;;;5032445;28;20198;-86
2024/01/27 12:10:36;;;;;;;6.60;3.73;;;11.20;83.70;;;;;;5051932;28;20189;-86
2024/01/27 12:13:01;;;;;;;6.13;4.17;;;11.50;85.30;;;;;;5042490;28;20435;-86
2024/01/27 12:15:27;;;;;;;6.47;4.27;;;11.50;85.80;;;;;;5036398;28;20522;-86
2024/01/27 12:17:52;;;;;;;5.40;3.77;;;11.20;86.80;;;;;;5027166;28;20182;-86
2024/01/27 12:20:18;;;;;;;9.47;4.30;;;11.20;88.30;;;;;;5030939;28;20576;-86
2024/01/27 12:22:44;;;;;;;6.90;4.10;;;10.30;88.40;;;;;;5050635;28;20458;-86
2024/01/27 12:25:11;;;;;;;5.50;3.90;;;10.30;89.80;;;;;;5060277;28;20553;-86
2024/01/27 12:27:38;;;;;;;5.75;4.18;;;10.50;90.10;;;;;;5030140;28;20193;-87
2024/01/27 12:30:05;;;;;;;9.90;5.13;;;10.80;90.20;;;;;;5026421;28;20181;-86
2024/01/27 12:32:31;;;;;;;5.38;4.53;;;10.50;90.40;;;;;;5025955;28;20205;-86
2024/01/27 12:35:01;;;;;;;8.70;3.53;;;11.30;90.80;;;;;;5055520;28;20217;-87
2024/01/27 12:37:28;;;;;;;5.70;4.32;;;10.50;90.30;;;;;;5028560;28;20184;-87
2024/01/27 12:39:53;;;;;;;3.90;3.50;;;10.70;90.20;;;;;;5027181;28;20670;-85
2024/01/27 12:42:19;;;;;;;9.00;3.67;;;10.60;90.00;;;;;;5048565;28;20190;-85
2024/01/27 12:44:45;;;;;;;6.77;3.47;;;10.90;90.00;;;;;;5040336;28;20249;-86
2024/01/27 12:47:10;;;;;;;5.87;3.80;;;10.60;90.10;;;;;;5040193;28;20279;-86
2024/01/27 12:49:36;;;;;;;5.60;3.90;;;10.90;90.30;;;;;;5045669;28;20239;-86